Albany, TX (76430)

12:51 AM CDT on July 29, 2014 (GMT -0500)
Albany (KTXALBAN4) Elev 1424 ft | 32.72 °N, 99.30 °W | Change Station

Current weather conditions updated 54 seconds ago

Clear
Clear
74.8 °F
Feels Like 77 °F
N
0.0
Wind Variable Wind from ESE
Gusts 17.0 mph

Today is forecast to be nearly the same temperature as yesterday. Slight chance of a thunderstorm.

Today
High -- | Low -- °F
--% Chance of Precip.
Yesterday
High -- | Low -- °F
Precip. -- in
6:49 AM 8:37 PM
Waxing Crescent, 5% visible
Pressure 30.15 in
Visibility 7.0 miles
Clouds Clear
Heat Index 77 °F
Dew Point 63 °F
Humidity 67%
Rainfall 0.00 in
Snow Depth Not available.
UV 0.0 out of 12
Pollen 5.70 out of 12
Air Quality Not available.
Flu Activity Not available.
METAR KBKD 290535Z AUTO 06003KT 7SM CLR 25/16 A3015 RMK AO2 T02510164

More Conditions Fewer Conditions

Pressure 30.15 in
Visibility 7.0 miles
Clouds Clear
Heat Index 77 °F
Dew Point 63 °F
Humidity 67%
Rainfall 0.00 in
Snow Depth Not available.
UV 0.0 out of 12
Pollen 5.70 out of 12
Air Quality Not available.
Flu Activity Not available.
METAR KBKD 290535Z AUTO 06003KT 7SM CLR 25/16 A3015 RMK AO2 T02510164

More Conditions Fewer Conditions

10-Day Weather Forecast

Almanac

Astronomy

Jul. 29, 2014 Rise Set
Actual Time 6:49 AM CDT 8:37 PM CDT
Civil Twilight 6:22 AM CDT 9:04 PM CDT
Nautical Twilight 5:49 AM CDT 9:37 PM CDT
Astronomical Twilight 5:14 AM CDT 10:11 PM CDT
Moon 9:15 AM CDT 10:03 PM CDT
Length of Visible Light 14h 42m
Length of Day
13h 48m
Tomorrow will be 1m 26s shorter.
Waxing Crescent, 5% of the Moon is Illuminated
Today
Waxing Crescent
Aug 3
First Quarter
Aug 10
Full
Aug 17
Last Quarter
Aug 25
New

Today's Extremes

State Highs State Lows

Community

WunderPhotos

Upload Photos

1,738,641 photos uploaded!

Nearby

Snow Depth

Station Depth Elevation
No new snow has been reported.

Earthquake Activity

City Distance Mag. Time & Date
No recent earthquake activity has been reported nearby.
Minimum magnitude displayed is 2.5.

Coastal Water Temperatures

Place Temperature
No Stations Reporting

Nearby Weather Stations

Station Location Temp. Heat Index Dew Point Humidity Wind Precip. Elev Updated Type
Albany, Albany, TX 74.8 °F 77 °F 63 °F 67% ESE  at  0.0 mph 0.00 in / hr 1424 ft 12:50 AM CDT Normal
Albany, TX 74.1 °F 76 °F 63 °F 68% NNE  at  0.0 mph 0.00 in / hr 1293 ft 12:50 AM CDT Rapid Fire
RAWS HAMBY TX, Abilene, TX 78 °F 79 °F 60 °F 54% ENE  at  5 mph 0.00 in / hr 1899 ft 12:03 AM CDT MADIS

Show More Stations Show Fewer Stations